Decoded Metar for OINZ (DASHT-E-NAZ in IRAN) (IATA:N/A) | Meteo·Mobile Aviation Weather
aviador You're here:

OINZ Decoded Metar

DASHT-E-NAZ in IRAN
Report Time2018-12-19 05:00:00
UTC Time2018-12-19 05:35:46
Flight Rules vfr VFR
Wind250° at 08 kt
W.Decomp.*RWY 16: 0.4 kt HW 8.0 kt RCW
W.Rank250° ranks 16
Current wind is above 250° avg. (7.7)
Visibility9999 m
Phenomena:N/A
Clouds:Few 015 Hf
Scattered 030 Hf
Overcast 090 Hf
Expected CloudBase > 1,200 ft AGL from Temp-Dew spread
Ceiling9,000 ft
Temp12°C (ISA -3)
Dew Point09°C (82% RH)
AAT8.9°C
QNH1028 hPa
Density Alt-663 ft
Elevation36 ft
Report Wrong Elevation
Raw Report
OINZ 190500Z 25008KT 9999 FEW015 SCT030 OVC090 12/09 Q1028=

Extra information for OINZ:More info

Metar Taf Metar & Taf Last 4 Metars F.Rules Stats Wind Profile Meteogram Temp Stats Airport Information Weather charts Add Link Nearby VenuesMetar ALERT Operation Metar Decoded Social comments